Terminal Aerodrome Forecast
Issued by NWS

Current Version | Previous Version | Text Only | Print | Product List | Glossary On
Versions: 1 2 3 4 5 6 7 8 9 10 11 12 13 14 15 16 17 18 19
175
FTUS43 KABR 221501 AAA
TAFMBG
TAF AMD
KMBG 221501Z 2215/2312 02008KT P6SM SCT070
     FM222100 34013KT P6SM OVC008
     FM230200 03009KT P6SM OVC025
     FM230700 02008KT P6SM OVC008=

USA.gov is the U.S. government's official web portal to all federal, state and local government web resources and services.